createdAt,value
2023-05-05T00:02:36.655Z,11.20
2023-05-05T00:05:25.468Z,11.10
2023-05-05T00:08:13.494Z,11.10
2023-05-05T00:11:01.666Z,11.20
2023-05-05T00:13:49.736Z,11.20
2023-05-05T00:16:39.146Z,11.10
2023-05-05T00:19:27.269Z,11.10
2023-05-05T00:22:15.375Z,11.10
2023-05-05T00:25:04.894Z,11.10
2023-05-05T00:27:52.951Z,11.10
2023-05-05T00:30:41.123Z,11.10
2023-05-05T00:33:30.553Z,11.10
2023-05-05T00:36:18.610Z,11.00
2023-05-05T00:39:06.753Z,11.00
2023-05-05T00:41:54.870Z,10.90
2023-05-05T00:44:43.162Z,10.90
2023-05-05T00:47:31.175Z,10.90
2023-05-05T00:50:23.732Z,10.90
2023-05-05T00:53:11.743Z,10.90
2023-05-05T00:55:59.770Z,10.90
2023-05-05T00:58:48.037Z,10.80
2023-05-05T01:01:36.351Z,10.90
2023-05-05T01:04:24.387Z,10.80
2023-05-05T01:07:16.201Z,10.80
2023-05-05T01:10:19.000Z,10.80
2023-05-05T01:13:15.654Z,10.80
2023-05-05T01:16:08.406Z,10.70
2023-05-05T01:18:59.396Z,10.70
2023-05-05T01:21:49.299Z,10.70
2023-05-05T01:24:44.818Z,10.70
2023-05-05T01:27:45.810Z,10.80
2023-05-05T01:30:46.637Z,10.70
2023-05-05T01:33:41.033Z,10.70
2023-05-05T01:36:32.733Z,10.70
2023-05-05T01:39:21.753Z,10.70
2023-05-05T01:42:13.835Z,10.70
2023-05-05T01:45:02.484Z,10.70
2023-05-05T01:47:50.940Z,10.70
2023-05-05T01:50:40.763Z,10.70
2023-05-05T01:53:29.290Z,10.60
2023-05-05T01:56:17.611Z,10.60
2023-05-05T01:59:06.713Z,10.60
2023-05-05T02:01:56.358Z,10.60
2023-05-05T02:04:45.232Z,10.60
2023-05-05T02:07:35.627Z,10.50
2023-05-05T02:10:23.929Z,10.50
2023-05-05T02:13:13.320Z,10.50
2023-05-05T02:16:02.260Z,10.50
2023-05-05T02:18:50.797Z,10.50
2023-05-05T02:21:38.902Z,10.50
2023-05-05T02:24:28.483Z,10.40
2023-05-05T02:27:17.893Z,10.40
2023-05-05T02:30:09.306Z,10.40
2023-05-05T02:33:00.622Z,10.40
2023-05-05T02:35:50.610Z,10.40
2023-05-05T02:38:41.209Z,10.40
2023-05-05T02:41:31.455Z,10.40
2023-05-05T02:44:20.866Z,10.40
2023-05-05T02:47:09.168Z,10.40
2023-05-05T02:49:57.257Z,10.40
2023-05-05T02:52:45.787Z,10.50
2023-05-05T02:55:37.252Z,10.50
2023-05-05T02:58:30.882Z,10.50
2023-05-05T03:01:26.764Z,10.50
2023-05-05T03:04:16.469Z,10.50
2023-05-05T03:07:08.347Z,10.50
2023-05-05T03:09:58.652Z,10.50
2023-05-05T03:12:47.737Z,10.50
2023-05-05T03:15:40.930Z,10.50
2023-05-05T03:18:30.689Z,10.50
2023-05-05T03:21:19.594Z,10.40
2023-05-05T03:24:14.499Z,10.40
2023-05-05T03:27:03.072Z,10.40
2023-05-05T03:29:51.145Z,10.40
2023-05-05T03:32:40.493Z,10.40
2023-05-05T03:35:28.534Z,10.40
2023-05-05T03:38:16.594Z,10.50
2023-05-05T03:41:04.629Z,10.50
2023-05-05T03:43:52.658Z,10.50
2023-05-05T03:46:40.649Z,10.50
2023-05-05T03:49:30.006Z,10.40
2023-05-05T03:52:18.025Z,10.50
2023-05-05T03:55:06.944Z,10.40
2023-05-05T03:57:55.030Z,10.40
2023-05-05T04:00:43.044Z,10.30
2023-05-05T04:03:31.218Z,10.30
2023-05-05T04:06:20.863Z,10.30
2023-05-05T04:09:08.947Z,10.20
2023-05-05T04:11:56.972Z,10.30
2023-05-05T04:14:45.324Z,10.30
2023-05-05T04:17:33.437Z,10.30
2023-05-05T04:20:21.649Z,10.30
2023-05-05T04:23:11.014Z,10.30
2023-05-05T04:25:59.022Z,10.30
2023-05-05T04:28:47.061Z,10.30
2023-05-05T04:31:35.094Z,10.30
2023-05-05T04:34:23.182Z,10.30
2023-05-05T04:37:11.435Z,10.30
2023-05-05T04:40:00.758Z,10.40
2023-05-05T04:42:48.780Z,10.50
2023-05-05T04:45:36.835Z,10.50
2023-05-05T04:48:24.869Z,10.60
2023-05-05T04:51:13.064Z,10.60
2023-05-05T04:54:01.128Z,10.60
2023-05-05T04:56:51.009Z,10.60
2023-05-05T04:59:39.121Z,10.70
2023-05-05T05:02:27.427Z,10.80
2023-05-05T05:05:15.502Z,10.80
2023-05-05T05:08:03.479Z,10.90
2023-05-05T05:10:51.519Z,11.00
2023-05-05T05:13:41.540Z,11.10
2023-05-05T05:16:29.576Z,11.10
2023-05-05T05:19:17.614Z,11.20
2023-05-05T05:22:05.648Z,11.30
2023-05-05T05:24:53.690Z,11.30
2023-05-05T05:27:42.338Z,11.30
2023-05-05T05:30:32.142Z,11.30
2023-05-05T05:33:20.222Z,11.30
2023-05-05T05:36:08.373Z,11.30
2023-05-05T05:38:56.458Z,11.40
2023-05-05T05:41:44.493Z,11.40
2023-05-05T05:44:32.747Z,11.50
2023-05-05T05:47:22.100Z,11.60
2023-05-05T05:50:10.619Z,11.60
2023-05-05T05:52:58.752Z,11.70
2023-05-05T05:55:46.874Z,11.70
2023-05-05T05:58:34.902Z,11.80
2023-05-05T06:01:22.943Z,11.90
2023-05-05T06:04:13.246Z,12.00
2023-05-05T06:07:01.357Z,12.00
2023-05-05T06:09:49.372Z,12.10
2023-05-05T06:12:37.403Z,12.20
2023-05-05T06:15:25.952Z,12.30
2023-05-05T06:18:14.154Z,12.40
2023-05-05T06:21:03.639Z,12.50
2023-05-05T06:23:51.779Z,12.60
2023-05-05T06:26:39.807Z,12.60
2023-05-05T06:29:28.606Z,12.70
2023-05-05T06:32:16.657Z,12.80
2023-05-05T06:35:04.813Z,12.80
2023-05-05T06:37:54.224Z,12.90
2023-05-05T06:40:42.303Z,13.00
2023-05-05T06:43:30.424Z,13.10
2023-05-05T06:46:18.473Z,13.20
2023-05-05T06:49:06.678Z,13.30
2023-05-05T06:51:54.663Z,13.40
2023-05-05T06:54:44.420Z,13.50
2023-05-05T06:57:32.413Z,13.60
2023-05-05T07:00:22.163Z,13.70
2023-05-05T07:03:10.338Z,13.80
2023-05-05T07:05:58.408Z,13.80
2023-05-05T07:08:46.402Z,13.90
2023-05-05T07:11:35.853Z,14.10
2023-05-05T07:14:24.462Z,14.10
2023-05-05T07:17:12.664Z,14.20
2023-05-05T07:20:00.660Z,14.30
2023-05-05T07:22:48.662Z,14.50
2023-05-05T07:25:36.689Z,14.60
2023-05-05T07:28:26.484Z,14.70
2023-05-05T07:31:14.528Z,14.80
2023-05-05T07:34:02.554Z,15.00
2023-05-05T07:36:50.631Z,15.10
2023-05-05T07:39:38.634Z,15.20
2023-05-05T07:42:26.653Z,15.40
2023-05-05T07:45:16.125Z,15.50
2023-05-05T07:48:04.321Z,15.60
2023-05-05T07:50:53.001Z,15.70
2023-05-05T07:53:41.784Z,15.90
2023-05-05T07:56:29.787Z,16.00
2023-05-05T07:59:17.784Z,16.10
2023-05-05T08:02:07.451Z,16.20
2023-05-05T08:04:55.504Z,16.30
2023-05-05T08:07:43.683Z,16.40
2023-05-05T08:10:31.682Z,16.50
2023-05-05T08:13:20.118Z,16.70
2023-05-05T08:16:08.461Z,16.80
2023-05-05T08:18:57.843Z,16.90
2023-05-05T08:21:45.874Z,17.00
2023-05-05T08:24:33.926Z,17.10
2023-05-05T08:27:21.928Z,17.30
2023-05-05T08:30:10.778Z,17.40
2023-05-05T08:32:59.033Z,17.50
2023-05-05T08:35:49.330Z,17.70
2023-05-05T08:38:37.381Z,17.80
2023-05-05T08:41:26.192Z,17.90
2023-05-05T08:44:14.235Z,18.00
2023-05-05T08:47:03.037Z,18.10
2023-05-05T08:49:53.888Z,18.10
2023-05-05T08:52:44.826Z,18.20
2023-05-05T08:55:35.128Z,18.40
2023-05-05T08:58:23.893Z,18.50
2023-05-05T09:01:12.348Z,18.70
2023-05-05T09:04:00.556Z,18.80
2023-05-05T09:06:48.721Z,18.90
2023-05-05T09:09:39.009Z,19.10
2023-05-05T09:12:30.225Z,19.20
2023-05-05T09:15:18.386Z,19.40
2023-05-05T09:18:08.912Z,19.50
2023-05-05T09:20:59.382Z,19.70
2023-05-05T09:24:07.745Z,19.80
2023-05-05T09:27:00.647Z,20.00
2023-05-05T09:29:50.011Z,20.20
2023-05-05T09:32:47.160Z,20.30
2023-05-05T09:35:51.112Z,20.40
2023-05-05T09:38:39.493Z,20.60
2023-05-05T09:41:37.378Z,20.60
2023-05-05T09:44:35.915Z,20.60
2023-05-05T09:47:35.004Z,20.70
2023-05-05T09:50:23.517Z,20.70
2023-05-05T09:53:11.878Z,20.70
2023-05-05T09:56:00.738Z,20.70
2023-05-05T09:58:48.767Z,20.90
2023-05-05T10:01:38.777Z,21.10
2023-05-05T10:04:28.106Z,21.20
2023-05-05T10:07:23.537Z,21.40
2023-05-05T10:10:12.380Z,21.40
2023-05-05T10:13:00.473Z,21.40
2023-05-05T10:15:49.157Z,21.40
2023-05-05T10:18:40.842Z,21.50
2023-05-05T10:21:31.628Z,21.60
2023-05-05T10:24:27.337Z,21.80
2023-05-05T10:27:16.632Z,21.80
2023-05-05T10:30:05.676Z,21.90
2023-05-05T10:33:13.201Z,22.10
2023-05-05T10:36:07.700Z,22.30
2023-05-05T10:38:56.131Z,22.50
2023-05-05T10:41:44.283Z,22.70
2023-05-05T10:44:33.210Z,22.90
2023-05-05T10:47:21.872Z,23.00
2023-05-05T10:50:12.675Z,23.10
2023-05-05T10:53:09.830Z,23.30
2023-05-05T10:56:00.150Z,23.50
2023-05-05T10:58:59.038Z,23.70
2023-05-05T11:01:47.953Z,23.80
2023-05-05T11:04:36.061Z,23.90
2023-05-05T11:07:27.506Z,24.00
2023-05-05T11:10:18.768Z,24.20
2023-05-05T11:13:19.805Z,24.20
2023-05-05T11:16:22.868Z,24.30
2023-05-05T11:19:29.795Z,24.40
2023-05-05T11:22:17.834Z,24.50
2023-05-05T11:25:20.790Z,24.50
2023-05-05T11:28:11.134Z,24.40
2023-05-05T11:31:18.600Z,24.30
2023-05-05T11:34:26.772Z,24.20
2023-05-05T11:37:15.794Z,24.10
2023-05-05T11:40:05.273Z,24.00
2023-05-05T11:43:04.935Z,23.80
2023-05-05T11:46:07.886Z,23.70
2023-05-05T11:48:57.284Z,23.50
2023-05-05T11:51:45.384Z,23.40
2023-05-05T11:54:33.809Z,23.10
2023-05-05T11:57:27.891Z,23.00
2023-05-05T12:00:16.430Z,22.70
2023-05-05T12:03:05.382Z,22.60
2023-05-05T12:05:56.367Z,22.50
2023-05-05T12:08:44.477Z,22.40
2023-05-05T12:11:32.482Z,22.30
2023-05-05T12:14:20.783Z,22.20
2023-05-05T12:17:09.317Z,22.20
2023-05-05T12:19:57.358Z,22.10
2023-05-05T12:22:46.708Z,22.00
2023-05-05T12:25:39.021Z,22.00
2023-05-05T12:28:43.085Z,22.00
2023-05-05T12:31:37.441Z,22.00
2023-05-05T12:34:25.799Z,21.90
2023-05-05T12:37:13.898Z,21.80
2023-05-05T12:40:06.237Z,21.70
2023-05-05T12:42:54.484Z,21.70
2023-05-05T12:45:42.563Z,21.70
2023-05-05T12:48:30.665Z,21.70
2023-05-05T12:51:20.009Z,21.70
2023-05-05T12:54:08.622Z,21.70
2023-05-05T12:56:58.647Z,21.70
2023-05-05T12:59:46.645Z,21.70
2023-05-05T13:02:34.954Z,21.70
2023-05-05T13:05:32.492Z,21.70
2023-05-05T13:08:20.544Z,21.70
2023-05-05T13:11:08.554Z,21.70
2023-05-05T13:13:57.949Z,21.70
2023-05-05T13:16:46.036Z,21.60
2023-05-05T13:19:35.516Z,21.60
2023-05-05T13:22:23.555Z,21.50
2023-05-05T13:25:11.765Z,21.50
2023-05-05T13:27:59.967Z,21.40
2023-05-05T13:30:49.299Z,21.40
2023-05-05T13:33:37.461Z,21.20
2023-05-05T13:36:25.457Z,21.00
2023-05-05T13:39:13.522Z,20.90
2023-05-05T13:42:01.522Z,20.70
2023-05-05T13:44:49.526Z,20.60
2023-05-05T13:47:38.961Z,20.40
2023-05-05T13:50:26.992Z,20.20
2023-05-05T13:53:15.053Z,20.10
2023-05-05T13:56:03.416Z,19.90
2023-05-05T13:58:51.927Z,19.80
2023-05-05T14:01:39.953Z,19.70
2023-05-05T14:04:29.350Z,19.60
2023-05-05T14:07:17.429Z,19.50
2023-05-05T14:10:06.344Z,19.40
2023-05-05T14:12:54.426Z,19.40
2023-05-05T14:15:42.495Z,19.40
2023-05-05T14:18:30.518Z,19.40
2023-05-05T14:21:19.878Z,19.40
2023-05-05T14:24:08.128Z,19.50
2023-05-05T14:26:56.091Z,19.60
2023-05-05T14:29:44.121Z,19.70
2023-05-05T14:32:32.164Z,19.80
2023-05-05T14:35:20.182Z,20.00
2023-05-05T14:38:09.663Z,20.10
2023-05-05T14:40:57.806Z,20.20
2023-05-05T14:43:45.861Z,20.30
2023-05-05T14:46:34.035Z,20.40
2023-05-05T14:49:22.033Z,20.30
2023-05-05T14:52:10.177Z,20.40
2023-05-05T14:54:59.527Z,20.40
2023-05-05T14:57:47.548Z,20.50
2023-05-05T15:00:35.710Z,20.40
2023-05-05T15:03:23.862Z,20.40
2023-05-05T15:06:11.947Z,20.30
2023-05-05T15:08:59.945Z,20.40
2023-05-05T15:11:49.314Z,20.40
2023-05-05T15:14:38.158Z,20.50
2023-05-05T15:17:26.329Z,20.60
2023-05-05T15:20:14.374Z,20.60
2023-05-05T15:23:02.408Z,20.60
2023-05-05T15:25:50.497Z,20.60
2023-05-05T15:28:39.872Z,20.70
2023-05-05T15:31:27.922Z,20.70
2023-05-05T15:34:15.965Z,20.70
2023-05-05T15:37:04.038Z,20.80
2023-05-05T15:39:52.198Z,20.80
2023-05-05T15:42:40.350Z,20.80
2023-05-05T15:45:29.991Z,20.80
2023-05-05T15:48:18.383Z,20.80
2023-05-05T15:51:06.449Z,20.80
2023-05-05T15:53:54.570Z,20.80
2023-05-05T15:56:42.569Z,20.80
2023-05-05T15:59:30.618Z,20.80
2023-05-05T16:02:20.281Z,20.80
2023-05-05T16:05:09.331Z,20.70
2023-05-05T16:07:57.575Z,20.70
2023-05-05T16:10:45.988Z,20.70
2023-05-05T16:13:33.992Z,20.80
2023-05-05T16:16:22.156Z,20.80
2023-05-05T16:19:11.595Z,20.80
2023-05-05T16:21:59.676Z,20.80
2023-05-05T16:24:47.703Z,20.90
2023-05-05T16:27:35.958Z,20.90
2023-05-05T16:30:24.013Z,20.90
2023-05-05T16:33:12.042Z,21.00
2023-05-05T16:36:01.378Z,20.90
2023-05-05T16:38:50.905Z,21.00
2023-05-05T16:41:38.922Z,20.90
2023-05-05T16:44:27.001Z,20.90
2023-05-05T16:47:15.003Z,20.90
2023-05-05T16:50:03.305Z,20.80
2023-05-05T16:52:52.812Z,20.70
2023-05-05T16:55:40.847Z,20.60
2023-05-05T16:58:28.902Z,20.60
2023-05-05T17:01:16.985Z,20.50
2023-05-05T17:04:05.043Z,20.50
2023-05-05T17:06:54.888Z,20.50
2023-05-05T17:09:44.688Z,20.40
2023-05-05T17:12:32.748Z,20.40
2023-05-05T17:15:21.034Z,20.40
2023-05-05T17:18:09.439Z,20.40
2023-05-05T17:20:57.472Z,20.40
2023-05-05T17:23:45.496Z,20.30
2023-05-05T17:26:34.892Z,20.20
2023-05-05T17:29:23.329Z,20.20
2023-05-05T17:32:11.552Z,20.10
2023-05-05T17:34:59.591Z,20.10
2023-05-05T17:37:47.662Z,20.00
2023-05-05T17:40:35.793Z,20.00
2023-05-05T17:43:25.242Z,19.90
2023-05-05T17:46:13.680Z,19.90
2023-05-05T17:49:01.779Z,19.80
2023-05-05T17:51:49.845Z,19.70
2023-05-05T17:54:37.976Z,19.60
2023-05-05T17:57:26.049Z,19.50
2023-05-05T18:00:16.230Z,19.30
2023-05-05T18:03:04.584Z,19.20
2023-05-05T18:05:52.687Z,19.20
2023-05-05T18:08:40.694Z,19.10
2023-05-05T18:11:30.949Z,19.10
2023-05-05T18:14:20.205Z,19.00
2023-05-05T18:17:09.644Z,19.00
2023-05-05T18:19:57.659Z,18.90
2023-05-05T18:22:46.871Z,18.80
2023-05-05T18:25:34.900Z,18.70
2023-05-05T18:28:22.952Z,18.60
2023-05-05T18:31:10.973Z,18.50
2023-05-05T18:34:00.464Z,18.40
2023-05-05T18:36:48.913Z,18.40
2023-05-05T18:39:36.959Z,18.40
2023-05-05T18:42:24.990Z,18.40
2023-05-05T18:45:13.084Z,18.30
2023-05-05T18:48:01.393Z,18.20
2023-05-05T18:50:51.411Z,18.10
2023-05-05T18:53:39.593Z,17.90
2023-05-05T18:56:27.798Z,17.80
2023-05-05T18:59:15.803Z,17.70
2023-05-05T19:02:03.872Z,17.50
2023-05-05T19:04:52.329Z,17.50
2023-05-05T19:07:41.928Z,17.40
2023-05-05T19:10:29.948Z,17.30
2023-05-05T19:13:18.001Z,17.20
2023-05-05T19:16:06.248Z,17.10
2023-05-05T19:18:58.635Z,16.90
2023-05-05T19:21:46.662Z,16.90
2023-05-05T19:24:36.445Z,16.80
2023-05-05T19:27:24.495Z,16.70
2023-05-05T19:30:12.902Z,16.70
2023-05-05T19:33:00.969Z,16.60
2023-05-05T19:35:49.008Z,16.60
2023-05-05T19:38:37.020Z,16.50
2023-05-05T19:41:26.474Z,16.50
2023-05-05T19:44:14.475Z,16.40
2023-05-05T19:47:02.486Z,16.40
2023-05-05T19:49:50.477Z,16.30
2023-05-05T19:52:41.310Z,16.30
2023-05-05T19:55:29.346Z,16.30
2023-05-05T19:58:18.886Z,16.20
2023-05-05T20:01:06.889Z,16.20
2023-05-05T20:03:55.935Z,16.20
2023-05-05T20:06:44.091Z,16.10
2023-05-05T20:09:32.327Z,16.10
2023-05-05T20:12:23.167Z,16.10
2023-05-05T20:15:12.889Z,16.10
2023-05-05T20:18:00.974Z,16.00
2023-05-05T20:20:49.051Z,16.00
2023-05-05T20:23:37.121Z,16.00
2023-05-05T20:26:25.765Z,15.90
2023-05-05T20:29:15.156Z,15.90
2023-05-05T20:32:05.281Z,15.90
2023-05-05T20:34:53.393Z,15.90
2023-05-05T20:37:41.418Z,15.90
2023-05-05T20:40:30.188Z,15.90
2023-05-05T20:43:18.191Z,15.80
2023-05-05T20:46:07.120Z,15.80
2023-05-05T20:48:56.539Z,15.80
2023-05-05T20:51:44.530Z,15.80
2023-05-05T20:54:33.824Z,15.70
2023-05-05T20:57:21.867Z,15.70
2023-05-05T21:00:10.535Z,15.80
2023-05-05T21:02:58.848Z,15.80
2023-05-05T21:05:48.254Z,15.70
2023-05-05T21:08:36.365Z,15.70
2023-05-05T21:11:24.423Z,15.80
2023-05-05T21:14:12.529Z,15.70
2023-05-05T21:17:00.898Z,15.70
2023-05-05T21:19:48.928Z,15.70
2023-05-05T21:22:42.170Z,15.70
2023-05-05T21:25:30.621Z,15.70
2023-05-05T21:28:18.658Z,15.60
2023-05-05T21:31:21.084Z,15.60
2023-05-05T21:34:10.058Z,15.60
2023-05-05T21:36:58.202Z,15.50
2023-05-05T21:39:49.480Z,15.50
2023-05-05T21:42:37.495Z,15.50
2023-05-05T21:45:25.516Z,15.40
2023-05-05T21:48:13.505Z,15.40
2023-05-05T21:51:01.815Z,15.40
2023-05-05T21:53:49.870Z,15.40
2023-05-05T21:56:39.353Z,15.40
2023-05-05T21:59:27.321Z,15.30
2023-05-05T22:02:15.390Z,15.30
2023-05-05T22:05:03.406Z,15.20
2023-05-05T22:07:51.402Z,15.20
2023-05-05T22:10:39.658Z,15.10
2023-05-05T22:13:28.967Z,15.10
2023-05-05T22:16:17.581Z,15.00
2023-05-05T22:19:05.738Z,15.00
2023-05-05T22:21:54.203Z,15.00
2023-05-05T22:24:42.242Z,14.90
2023-05-05T22:27:30.248Z,14.80
2023-05-05T22:30:19.622Z,14.70
2023-05-05T22:33:07.996Z,14.70
2023-05-05T22:35:56.132Z,14.70
2023-05-05T22:38:44.132Z,14.60
2023-05-05T22:41:32.148Z,14.60
2023-05-05T22:44:20.148Z,14.50
2023-05-05T22:47:09.548Z,14.40
2023-05-05T22:49:57.870Z,14.30
2023-05-05T22:52:45.880Z,14.30
2023-05-05T22:55:33.954Z,14.30
2023-05-05T22:58:21.971Z,14.30
2023-05-05T23:01:10.043Z,14.20
2023-05-05T23:03:59.672Z,14.20
2023-05-05T23:06:47.740Z,14.20
2023-05-05T23:09:35.794Z,14.10
2023-05-05T23:12:23.781Z,14.20
2023-05-05T23:15:12.231Z,14.10
2023-05-05T23:18:00.612Z,14.20
2023-05-05T23:20:50.075Z,14.10
2023-05-05T23:23:38.104Z,14.10
2023-05-05T23:26:26.095Z,14.00
2023-05-05T23:29:14.104Z,14.00
2023-05-05T23:32:02.160Z,14.10
2023-05-05T23:34:50.176Z,14.00
2023-05-05T23:37:39.558Z,13.90
2023-05-05T23:40:27.777Z,13.90
2023-05-05T23:43:15.847Z,13.90
2023-05-05T23:46:03.934Z,13.90
2023-05-05T23:48:51.944Z,13.90
2023-05-05T23:51:39.969Z,13.90
2023-05-05T23:54:29.313Z,13.90
2023-05-05T23:57:17.329Z,13.80
